Latest Weather Observations for Kadina

IDS60801

Issued at 9:35 am CDT Friday 21 November 2014 (issued every 30 minutes, with the page automatically refreshed every 10 minutes)

About weather observations | Map of weather stations | Latest weather observations for SA | Other Formats
Station Details ID: 022050 Name: KADINA AWS Lat: -33.97 Lon: 137.66 Height: 41.14 m
Data from the previous 72 hours. | See also: Recent months at Kadina
Date/Time
CDT
Temp
°C
App
Temp
°C
Dew
Point
Rel
Hum
%
Delta-T
°C
Wind Press
QNH
hPa
Press
MSL
hPa
Rain
since 9 am
mm
Dir
 
Spd
km/h
Gust
km/h
Spd
kts
Gust
kts
21/09:30am 19.1 17.2 11.7 62 4.1 WNW 13 20 7 11 1013.8 - 0.0
21/09:00am 18.3 17.4 11.4 64 3.8 NNW 7 13 4 7 1013.6 1013.4 1.0
21/08:30am 17.7 16.1 10.3 62 3.9 NE 9 15 5 8 1013.5 - 1.0
21/08:00am 16.9 15.4 10.5 66 3.4 ENE 9 13 5 7 1013.4 - 1.0
21/07:30am 15.2 14.1 10.8 75 2.3 ENE 7 11 4 6 1013.3 - 1.0
21/07:00am 13.1 12.0 10.6 85 1.3 NE 7 11 4 6 1012.9 - 1.0
21/06:30am 10.9 9.0 9.2 89 0.8 ENE 9 11 5 6 1012.9 - 1.0
21/06:00am 12.3 11.2 10.7 90 0.8 E 7 11 4 6 1013.0 1012.8 1.0
21/05:30am 11.2 9.9 9.9 92 0.7 SE 7 7 4 4 1012.9 - 1.0
21/05:00am 11.3 9.9 9.7 90 0.8 E 7 9 4 5 1012.2 - 1.0
21/04:30am 11.3 9.4 9.2 87 1.1 E 9 9 5 5 1011.9 - 1.0
21/04:00am 13.0 11.5 10.4 84 1.4 SE 9 11 5 6 1012.2 - 1.0
21/03:30am 14.5 13.8 11.5 82 1.6 ESE 6 9 3 5 1012.5 - 1.0
21/03:00am 14.3 13.4 11.3 82 1.6 SE 7 7 4 4 1012.7 1012.5 1.0
21/02:30am 14.5 13.8 11.5 82 1.6 E 6 7 3 4 1013.0 - 1.0
21/02:00am 14.5 13.8 11.5 82 1.6 SE 6 9 3 5 1013.1 - 1.0
21/01:30am 14.6 14.4 11.9 84 1.5 SSE 4 7 2 4 1013.2 - 1.0
21/01:00am 13.7 13.1 11.7 88 1.1 ESE 6 7 3 4 1013.3 - 1.0
21/12:30am 12.7 12.3 11.1 90 0.8 SSE 4 6 2 3 1013.1 - 1.0
21/12:00am 12.8 11.9 11.2 90 0.8 SSE 7 9 4 5 1012.8 1012.6 1.0
 
Date/Time
CDT
Temp
°C
App
Temp
°C
Dew
Point
Rel
Hum
%
Delta-T
°C
Wind Press
QNH
hPa
Press
MSL
hPa
Rain
since 9 am
mm
Dir
 
Spd
km/h
Gust
km/h
Spd
kts
Gust
kts
20/11:30pm 13.5 11.9 11.6 88 1.0 S 11 11 6 6 1012.8 - 1.0
20/11:00pm 14.7 13.4 12.4 86 1.3 S 11 15 6 8 1012.6 - 1.0
20/10:30pm 15.4 13.0 12.7 84 1.5 SSW 17 22 9 12 1012.5 - 1.0
20/10:00pm 15.8 13.5 13.1 84 1.5 SSW 17 24 9 13 1012.2 - 1.0
20/09:30pm 16.3 13.2 13.4 83 1.6 SSW 22 33 12 18 1012.1 - 1.0
20/09:00pm 16.5 13.5 13.8 84 1.5 SSW 22 30 12 16 1011.6 1011.4 1.0
20/08:30pm 16.8 13.0 13.5 81 1.9 SSW 26 35 14 19 1011.1 - 1.0
20/08:00pm 17.3 13.6 14.0 81 1.9 SSW 26 37 14 20 1010.6 - 1.0
20/07:30pm 17.9 13.5 14.2 79 2.1 SSW 30 43 16 23 1010.2 - 1.0
20/07:00pm 18.9 13.2 14.2 74 2.7 SSW 37 46 20 25 1009.8 - 1.0
20/06:30pm 19.9 14.9 14.0 69 3.4 SSW 33 48 18 26 1009.0 - 1.0
20/06:00pm 20.6 14.9 14.3 67 3.7 SSW 37 48 20 26 1008.6 1008.4 1.0
20/05:30pm 21.2 15.6 14.4 65 4.0 SSW 37 50 20 27 1008.4 - 1.0
20/05:00pm 22.7 17.7 15.0 61 4.6 SSW 35 50 19 27 1007.9 - 1.0
20/04:30pm 24.5 21.4 16.5 61 4.9 SSW 28 37 15 20 1007.8 - 1.0
20/04:00pm 25.0 22.0 15.9 57 5.5 SW 26 39 14 21 1007.9 - 1.0
20/03:30pm 24.2 20.8 15.9 59 5.0 SW 28 39 15 21 1008.2 - 1.0
20/03:00pm 25.4 24.5 18.3 65 4.5 SW 20 28 11 15 1007.8 1007.6 1.0
20/02:30pm 24.4 23.8 18.8 71 3.6 WNW 20 30 11 16 1008.3 - 1.0
20/02:00pm 23.8 23.0 19.3 76 2.9 N 22 30 12 16 1008.5 - 1.0
20/01:30pm 23.3 21.7 19.2 78 2.6 N 26 35 14 19 1008.8 - 1.0
20/01:00pm 22.7 20.7 19.9 84 1.8 N 30 37 16 20 1009.2 - 1.0
20/12:30pm 21.8 20.0 19.5 87 1.5 N 28 39 15 21 1009.5 - 1.0
20/12:00pm 20.7 18.8 18.6 88 1.3 N 26 32 14 17 1009.8 1009.6 1.0
20/11:30am 20.6 19.1 18.5 88 1.3 N 24 33 13 18 1010.1 - 1.0
20/11:00am 19.9 18.7 18.4 91 0.9 N 22 28 12 15 1009.9 - 1.0
20/10:30am 19.5 18.8 18.3 93 0.7 N 19 24 10 13 1009.7 - 1.0
20/10:00am 19.3 18.3 18.0 92 0.8 NW 20 26 11 14 1009.9 - 0.8
20/09:30am 20.9 20.1 18.1 84 1.7 WNW 19 24 10 13 1009.7 - 0.0
20/09:00am 20.2 19.8 18.0 87 1.4 W 17 20 9 11 1009.9 1009.7 0.4
20/08:30am 19.9 18.8 17.7 87 1.4 W 20 28 11 15 1009.6 - 0.2
20/08:00am 19.9 17.3 17.7 87 1.4 W 28 37 15 20 1009.8 - 0.0
20/07:30am 21.2 19.6 16.6 75 2.8 WSW 20 28 11 15 1009.3 - 0.0
20/07:00am 22.6 20.7 15.7 65 4.2 W 20 28 11 15 1009.0 - 0.0
20/06:30am 23.1 21.6 14.1 57 5.3 W 15 17 8 9 1008.9 - 0.0
20/06:00am 23.6 22.6 13.5 53 5.9 W 11 19 6 10 1008.0 1007.8 0.0
20/05:30am 21.9 22.2 12.2 54 5.5 N 2 7 1 4 1007.6 - 0.0
20/05:00am 21.8 21.3 12.1 54 5.5 N 6 9 3 5 1007.0 - 0.0
20/04:30am 23.2 22.5 11.9 49 6.4 W 7 11 4 6 1006.7 - 0.0
20/04:00am 24.1 22.0 12.4 48 6.7 SW 15 20 8 11 1006.7 - 0.0
20/03:30am 24.5 21.9 12.1 46 7.1 SW 17 26 9 14 1007.2 - 0.0
20/03:00am 25.3 21.7 11.8 43 7.7 W 22 32 12 17 1008.0 1007.8 0.0
20/02:30am 25.5 22.5 12.4 44 7.6 WSW 20 28 11 15 1008.2 - 0.0
20/02:00am 25.6 22.4 11.4 41 8.1 W 19 28 10 15 1008.3 - 0.0
20/01:30am 27.5 23.8 9.3 32 10.1 NNW 19 26 10 14 1007.8 - 0.0
20/01:00am 28.3 22.3 8.6 29 10.8 NW 30 44 16 24 1007.7 - 0.0
20/12:49am 26.8 20.4 9.2 33 9.7 W 33 41 18 22 1007.8 - 0.0
20/12:30am 27.2 22.3 2.3 20 12.2 NNE 17 20 9 11 1006.9 - 0.0
20/12:00am 27.8 22.5 2.1 19 12.6 NNE 19 24 10 13 1007.1 1006.9 0.0
 
Date/Time
CDT
Temp
°C
App
Temp
°C
Dew
Point
Rel
Hum
%
Delta-T
°C
Wind Press
QNH
hPa
Press
MSL
hPa
Rain
since 9 am
mm
Dir
 
Spd
km/h
Gust
km/h
Spd
kts
Gust
kts
19/11:30pm 26.4 21.5 2.3 21 11.7 NNE 17 20 9 11 1007.2 - 0.0
19/11:00pm 24.5 20.0 2.0 23 10.7 NE 15 19 8 10 1007.5 - 0.0
19/10:30pm 26.0 21.2 2.7 22 11.4 NE 17 20 9 11 1007.4 - 0.0
19/10:00pm 26.0 21.1 2.0 21 11.6 NE 17 19 9 10 1007.7 - 0.0
19/09:30pm 25.2 20.4 2.6 23 10.9 NE 17 19 9 10 1007.6 - 0.0
19/09:00pm 26.6 21.9 3.2 22 11.6 NE 17 19 9 10 1007.1 1006.9 0.0
19/08:30pm 26.7 22.2 1.9 20 12.0 NE 15 17 8 9 1007.3 - 0.0
19/08:00pm 28.8 24.2 1.3 17 13.3 NE 15 17 8 9 1007.5 - 0.0
19/07:30pm 31.5 27.2 0.8 14 15.0 NE 13 17 7 9 1007.7 - 0.0
19/07:00pm 32.5 28.3 1.6 14 15.4 NNE 13 19 7 10 1008.0 - 0.0
19/06:30pm 33.5 28.5 1.3 13 16.1 NNE 17 20 9 11 1008.1 - 0.0
19/06:00pm 33.9 28.9 1.6 13 16.3 NNE 17 20 9 11 1008.5 1008.3 0.0
19/05:30pm 33.9 28.9 1.6 13 16.3 N 17 22 9 12 1008.8 - 0.0
19/05:00pm 34.4 29.5 2.0 13 16.5 N 17 24 9 13 1009.2 - 0.0
19/04:30pm 34.7 30.2 2.3 13 16.6 N 15 28 8 15 1009.7 - 0.0
19/04:00pm 34.6 29.5 3.2 14 16.3 NNW 19 28 10 15 1010.2 - 0.0
19/03:30pm 34.5 29.4 3.1 14 16.3 N 19 32 10 17 1010.8 - 0.0
19/03:00pm 33.5 28.1 2.4 14 15.9 N 20 28 11 15 1011.3 1011.1 0.0
19/02:30pm 32.6 26.9 2.6 15 15.2 N 22 30 12 16 1011.9 - 0.0
19/02:00pm 32.3 26.5 2.4 15 15.1 N 22 33 12 18 1012.6 - 0.0
19/01:30pm 31.5 24.9 1.8 15 14.8 N 26 33 14 18 1013.2 - 0.0
19/01:00pm 30.7 23.9 2.9 17 14.0 N 28 35 15 19 1013.7 - 0.0
19/12:30pm 30.1 23.3 3.2 18 13.6 N 28 37 15 20 1014.3 - 0.0
19/12:00pm 29.2 22.7 4.6 21 12.7 N 28 35 15 19 1014.5 1014.3 0.0
19/11:30am 27.7 21.4 5.9 25 11.4 N 28 35 15 19 1015.3 - 0.0
19/11:00am 27.1 21.2 6.0 26 11.0 N 26 32 14 17 1015.5 - 0.0
19/10:30am 26.2 20.5 6.8 29 10.2 N 26 33 14 18 1015.5 - 0.0
19/10:00am 25.3 20.2 6.0 29 9.9 N 22 35 12 19 1015.6 - 0.0
19/09:30am 24.2 19.5 6.0 31 9.3 N 20 28 11 15 1015.6 - 0.0
19/09:00am 23.3 19.4 7.0 35 8.4 NNE 17 22 9 12 1016.0 1015.9 0.0
19/08:30am 20.4 17.4 7.7 44 6.6 NNE 13 17 7 9 1016.3 - 0.0
19/08:00am 18.2 16.6 8.7 54 4.9 NE 7 11 4 6 1016.4 - 0.0
19/07:30am 14.1 12.3 9.5 74 2.4 E 9 13 5 7 1016.2 - 0.0
19/07:00am 10.8 8.4 8.6 86 1.1 ESE 11 11 6 6 1016.4 - 0.0
19/06:30am 7.8 4.9 6.3 90 0.7 E 11 13 6 7 1016.1 - 0.0
19/06:00am 7.6 4.3 6.4 92 0.5 E 13 15 7 8 1016.3 1016.2 0.0
19/05:30am 7.6 4.6 6.2 91 0.6 ESE 11 13 6 7 1016.9 - 0.0
19/05:00am 7.4 4.4 6.0 91 0.6 ESE 11 13 6 7 1017.0 - 0.0
19/04:30am 7.8 4.9 6.3 90 0.7 ESE 11 13 6 7 1017.4 - 0.0
19/04:00am 8.5 5.3 6.8 89 0.8 ESE 13 15 7 8 1017.5 - 0.0
19/03:30am 9.1 5.6 7.4 89 0.8 ESE 15 17 8 9 1017.7 - 0.0
19/03:00am 8.9 5.4 7.2 89 0.8 SE 15 15 8 8 1017.8 1017.7 0.0
19/02:30am 8.6 5.0 6.7 88 0.9 ESE 15 17 8 9 1017.9 - 0.0
19/02:00am 7.9 4.1 5.7 86 1.0 ESE 15 17 8 9 1018.3 - 0.0
19/01:30am 7.8 4.3 5.4 85 1.1 ESE 13 15 7 8 1018.8 - 0.0
19/01:00am 8.4 5.6 5.2 80 1.4 E 9 11 5 6 1019.3 - 0.0
19/12:30am 8.6 5.0 5.2 79 1.5 ESE 13 17 7 9 1019.7 - 0.0
19/12:00am 10.1 7.2 6.3 77 1.8 SE 11 13 6 7 1020.2 1020.1 0.0
 
Date/Time
CDT
Temp
°C
App
Temp
°C
Dew
Point
Rel
Hum
%
Delta-T
°C
Wind Press
QNH
hPa
Press
MSL
hPa
Rain
since 9 am
mm
Dir
 
Spd
km/h
Gust
km/h
Spd
kts
Gust
kts
18/11:30pm 11.6 8.6 7.9 78 1.8 SSE 13 15 7 8 1020.6 - 0.0
18/11:00pm 12.3 9.0 8.0 75 2.1 S 15 17 8 9 1020.7 - 0.0
18/10:30pm 14.5 12.1 8.5 67 3.0 SSE 11 13 6 7 1020.8 - 0.0
18/10:00pm 16.4 14.2 9.3 63 3.7 SE 11 15 6 8 1020.8 - 0.0
18/09:30pm 16.7 14.8 9.1 61 3.9 SSE 9 11 5 6 1020.4 - 0.0
18/09:00pm 17.1 14.2 9.5 61 4.0 S 15 20 8 11 1020.3 1020.2 0.0
18/08:30pm 17.3 15.0 9.0 58 4.3 S 11 15 6 8 1020.1 - 0.0
18/08:00pm 17.6 14.9 9.0 57 4.5 S 13 15 7 8 1020.0 - 0.0
18/07:30pm 18.5 15.9 7.6 49 5.5 SSW 11 15 6 8 1020.2 - 0.0
18/07:00pm 18.5 14.8 7.9 50 5.4 S 17 20 9 11 1019.9 - 0.0
18/06:30pm 18.9 15.1 7.7 48 5.7 SSW 17 20 9 11 1019.8 - 0.0
18/06:00pm 19.1 15.0 6.2 43 6.4 SW 17 20 9 11 1019.7 1019.6 0.0
18/05:30pm 19.4 14.8 5.8 41 6.7 SW 19 24 10 13 1019.6 - 0.0
18/05:00pm 20.6 15.9 7.9 44 6.6 WSW 22 28 12 15 1020.0 - 0.0
18/04:30pm 21.5 16.2 7.0 39 7.4 WSW 24 33 13 18 1020.2 - 0.0
18/04:00pm 22.3 17.6 9.1 43 7.1 WSW 24 33 13 18 1020.2 - 0.0
18/03:30pm 21.7 17.5 9.6 46 6.5 WSW 22 32 12 17 1020.5 - 0.0
18/03:00pm 21.6 17.3 9.2 45 6.6 WSW 22 32 12 17 1020.8 1020.7 0.0
18/02:30pm 19.7 15.6 10.1 54 5.2 WSW 22 30 12 16 1021.1 - 0.0
18/02:00pm 20.0 15.5 10.1 53 5.3 W 24 32 13 17 1021.3 - 0.0
18/01:30pm 20.8 15.5 9.7 49 6.0 W 28 37 15 20 1021.5 - 0.0
18/01:00pm 21.8 17.7 10.0 47 6.4 W 22 32 12 17 1021.5 - 0.0
18/12:30pm 21.4 17.7 9.6 47 6.3 W 19 30 10 16 1021.8 - 0.0
18/12:00pm 21.3 17.7 10.5 50 5.9 W 20 28 11 15 1022.0 1021.9 0.0
18/11:30am 20.1 16.7 9.1 49 5.8 W 17 22 9 12 1022.3 - 0.0
18/11:00am 20.7 18.5 8.0 44 6.6 S 9 17 5 9 1022.6 - 0.0
18/10:30am 19.7 17.2 8.4 48 5.9 SSE 11 19 6 10 1022.7 - 0.0
18/10:00am 18.6 16.6 8.8 53 5.1 S 9 24 5 13 1022.9 - 0.0

Other Formats:

Comma delimited format used in spreadsheet applications
http://www.bom.gov.au/fwo/IDS60801/IDS60801.94685.axf

JavaScript Object Notation format (JSON) in row-major order
http://www.bom.gov.au/fwo/IDS60801/IDS60801.94685.json